sensor_id;sensor_type;location;lat;lon;timestamp;P1;durP1;ratioP1;P2;durP2;ratioP2
30571;SDS011;17348;50.948;10.696;2023-02-27T00:00:08;14.37;;;5.20;;
30571;SDS011;17348;50.948;10.696;2023-02-27T00:03:14;11.50;;;4.43;;
30571;SDS011;17348;50.948;10.696;2023-02-27T00:06:16;9.13;;;3.23;;
30571;SDS011;17348;50.948;10.696;2023-02-27T00:09:18;12.07;;;3.70;;
30571;SDS011;17348;50.948;10.696;2023-02-27T00:12:21;6.33;;;2.87;;
30571;SDS011;17348;50.948;10.696;2023-02-27T00:15:24;10.73;;;3.50;;
30571;SDS011;17348;50.948;10.696;2023-02-27T00:18:30;6.27;;;2.63;;
30571;SDS011;17348;50.948;10.696;2023-02-27T00:21:32;8.50;;;3.00;;
30571;SDS011;17348;50.948;10.696;2023-02-27T00:24:34;5.33;;;2.20;;
30571;SDS011;17348;50.948;10.696;2023-02-27T00:27:37;7.33;;;2.23;;
30571;SDS011;17348;50.948;10.696;2023-02-27T00:30:41;3.93;;;1.90;;
30571;SDS011;17348;50.948;10.696;2023-02-27T00:33:43;7.33;;;2.57;;
30571;SDS011;17348;50.948;10.696;2023-02-27T00:36:46;5.60;;;1.97;;
30571;SDS011;17348;50.948;10.696;2023-02-27T00:39:48;1.70;;;1.20;;
30571;SDS011;17348;50.948;10.696;2023-02-27T00:42:50;4.80;;;2.20;;
30571;SDS011;17348;50.948;10.696;2023-02-27T00:45:54;5.80;;;1.47;;
30571;SDS011;17348;50.948;10.696;2023-02-27T00:48:56;3.60;;;1.80;;
30571;SDS011;17348;50.948;10.696;2023-02-27T00:51:59;4.37;;;1.90;;
30571;SDS011;17348;50.948;10.696;2023-02-27T00:55:01;8.30;;;2.27;;
30571;SDS011;17348;50.948;10.696;2023-02-27T00:58:04;2.00;;;1.30;;
30571;SDS011;17348;50.948;10.696;2023-02-27T01:01:07;4.83;;;1.67;;
30571;SDS011;17348;50.948;10.696;2023-02-27T01:04:10;2.93;;;1.77;;
30571;SDS011;17348;50.948;10.696;2023-02-27T01:07:12;5.53;;;1.80;;
30571;SDS011;17348;50.948;10.696;2023-02-27T01:10:15;7.87;;;2.33;;
30571;SDS011;17348;50.948;10.696;2023-02-27T01:13:17;3.87;;;1.90;;
30571;SDS011;17348;50.948;10.696;2023-02-27T01:16:21;4.27;;;2.43;;
30571;SDS011;17348;50.948;10.696;2023-02-27T01:19:24;5.47;;;1.77;;
30571;SDS011;17348;50.948;10.696;2023-02-27T01:22:26;4.37;;;1.87;;
30571;SDS011;17348;50.948;10.696;2023-02-27T01:25:29;6.70;;;2.00;;
30571;SDS011;17348;50.948;10.696;2023-02-27T01:28:31;5.77;;;1.80;;
30571;SDS011;17348;50.948;10.696;2023-02-27T01:31:35;6.03;;;1.60;;
30571;SDS011;17348;50.948;10.696;2023-02-27T01:34:37;3.17;;;1.47;;
30571;SDS011;17348;50.948;10.696;2023-02-27T01:37:39;8.70;;;2.00;;
30571;SDS011;17348;50.948;10.696;2023-02-27T01:40:42;7.27;;;1.83;;
30571;SDS011;17348;50.948;10.696;2023-02-27T01:43:57;8.50;;;1.57;;
30571;SDS011;17348;50.948;10.696;2023-02-27T01:47:02;9.53;;;2.47;;
30571;SDS011;17348;50.948;10.696;2023-02-27T01:50:05;7.20;;;2.93;;
30571;SDS011;17348;50.948;10.696;2023-02-27T01:53:08;6.87;;;3.57;;
30571;SDS011;17348;50.948;10.696;2023-02-27T01:56:11;5.93;;;2.97;;
30571;SDS011;17348;50.948;10.696;2023-02-27T01:59:17;5.90;;;2.63;;
30571;SDS011;17348;50.948;10.696;2023-02-27T02:02:22;6.37;;;2.53;;
30571;SDS011;17348;50.948;10.696;2023-02-27T02:05:29;7.90;;;2.70;;
30571;SDS011;17348;50.948;10.696;2023-02-27T02:08:32;8.40;;;3.20;;
30571;SDS011;17348;50.948;10.696;2023-02-27T02:11:37;8.57;;;2.10;;
30571;SDS011;17348;50.948;10.696;2023-02-27T02:14:40;10.10;;;1.60;;
30571;SDS011;17348;50.948;10.696;2023-02-27T02:17:48;4.90;;;1.50;;
30571;SDS011;17348;50.948;10.696;2023-02-27T02:21:19;4.87;;;1.43;;
30571;SDS011;17348;50.948;10.696;2023-02-27T02:28:21;7.33;;;1.77;;
30571;SDS011;17348;50.948;10.696;2023-02-27T02:31:56;5.77;;;1.77;;
30571;SDS011;17348;50.948;10.696;2023-02-27T02:35:32;4.87;;;1.50;;
30571;SDS011;17348;50.948;10.696;2023-02-27T02:39:16;4.40;;;1.80;;
30571;SDS011;17348;50.948;10.696;2023-02-27T02:42:39;5.07;;;1.93;;
30571;SDS011;17348;50.948;10.696;2023-02-27T02:45:52;3.40;;;1.43;;
30571;SDS011;17348;50.948;10.696;2023-02-27T02:49:04;7.67;;;1.10;;
30571;SDS011;17348;50.948;10.696;2023-02-27T02:52:16;2.53;;;1.00;;
30571;SDS011;17348;50.948;10.696;2023-02-27T02:55:25;2.77;;;1.50;;
30571;SDS011;17348;50.948;10.696;2023-02-27T02:58:34;3.42;;;1.40;;
30571;SDS011;17348;50.948;10.696;2023-02-27T03:01:46;3.93;;;1.80;;
30571;SDS011;17348;50.948;10.696;2023-02-27T03:04:52;4.83;;;2.53;;
30571;SDS011;17348;50.948;10.696;2023-02-27T03:07:59;4.83;;;1.37;;
30571;SDS011;17348;50.948;10.696;2023-02-27T03:11:07;6.53;;;1.53;;
30571;SDS011;17348;50.948;10.696;2023-02-27T03:14:12;7.00;;;1.50;;
30571;SDS011;17348;50.948;10.696;2023-02-27T03:17:22;5.97;;;1.77;;
30571;SDS011;17348;50.948;10.696;2023-02-27T03:20:30;4.77;;;1.43;;
30571;SDS011;17348;50.948;10.696;2023-02-27T03:23:37;6.03;;;1.47;;
30571;SDS011;17348;50.948;10.696;2023-02-27T03:26:45;5.90;;;1.43;;
30571;SDS011;17348;50.948;10.696;2023-02-27T03:29:51;3.27;;;1.40;;
30571;SDS011;17348;50.948;10.696;2023-02-27T03:32:57;2.37;;;1.50;;
30571;SDS011;17348;50.948;10.696;2023-02-27T03:36:04;3.03;;;1.83;;
30571;SDS011;17348;50.948;10.696;2023-02-27T03:39:10;1.90;;;1.20;;
30571;SDS011;17348;50.948;10.696;2023-02-27T03:42:28;9.13;;;1.47;;
30571;SDS011;17348;50.948;10.696;2023-02-27T03:45:35;3.63;;;1.70;;
30571;SDS011;17348;50.948;10.696;2023-02-27T03:48:45;4.50;;;1.53;;
30571;SDS011;17348;50.948;10.696;2023-02-27T03:51:48;6.53;;;1.33;;
30571;SDS011;17348;50.948;10.696;2023-02-27T03:54:52;2.80;;;1.40;;
30571;SDS011;17348;50.948;10.696;2023-02-27T03:58:00;8.07;;;1.53;;
30571;SDS011;17348;50.948;10.696;2023-02-27T04:01:03;2.90;;;0.87;;
30571;SDS011;17348;50.948;10.696;2023-02-27T04:04:07;4.53;;;2.03;;
30571;SDS011;17348;50.948;10.696;2023-02-27T04:07:14;1.47;;;1.13;;
30571;SDS011;17348;50.948;10.696;2023-02-27T04:10:32;3.10;;;1.40;;
30571;SDS011;17348;50.948;10.696;2023-02-27T04:17:25;4.70;;;1.57;;
30571;SDS011;17348;50.948;10.696;2023-02-27T04:20:38;2.73;;;1.67;;
30571;SDS011;17348;50.948;10.696;2023-02-27T04:23:45;2.87;;;1.40;;
30571;SDS011;17348;50.948;10.696;2023-02-27T04:26:53;5.67;;;2.10;;
30571;SDS011;17348;50.948;10.696;2023-02-27T04:30:02;6.17;;;2.23;;
30571;SDS011;17348;50.948;10.696;2023-02-27T04:33:16;6.90;;;2.47;;
30571;SDS011;17348;50.948;10.696;2023-02-27T04:36:26;5.80;;;2.40;;
30571;SDS011;17348;50.948;10.696;2023-02-27T04:39:33;8.43;;;3.07;;
30571;SDS011;17348;50.948;10.696;2023-02-27T04:42:42;9.37;;;2.80;;
30571;SDS011;17348;50.948;10.696;2023-02-27T04:48:59;11.13;;;3.67;;
30571;SDS011;17348;50.948;10.696;2023-02-27T04:52:07;7.87;;;3.13;;
30571;SDS011;17348;50.948;10.696;2023-02-27T04:55:16;13.27;;;3.57;;
30571;SDS011;17348;50.948;10.696;2023-02-27T04:58:24;5.82;;;2.75;;
30571;SDS011;17348;50.948;10.696;2023-02-27T05:01:38;11.77;;;3.47;;
30571;SDS011;17348;50.948;10.696;2023-02-27T05:04:45;7.30;;;3.40;;
30571;SDS011;17348;50.948;10.696;2023-02-27T05:07:52;6.77;;;3.13;;
30571;SDS011;17348;50.948;10.696;2023-02-27T05:10:58;6.80;;;3.03;;
30571;SDS011;17348;50.948;10.696;2023-02-27T05:14:05;4.27;;;2.53;;
30571;SDS011;17348;50.948;10.696;2023-02-27T05:17:13;5.20;;;2.63;;
30571;SDS011;17348;50.948;10.696;2023-02-27T05:20:21;6.27;;;2.53;;
30571;SDS011;17348;50.948;10.696;2023-02-27T05:23:29;8.60;;;2.70;;
30571;SDS011;17348;50.948;10.696;2023-02-27T05:26:45;5.80;;;2.30;;
30571;SDS011;17348;50.948;10.696;2023-02-27T05:29:57;5.83;;;2.63;;
30571;SDS011;17348;50.948;10.696;2023-02-27T05:33:05;3.37;;;2.17;;
30571;SDS011;17348;50.948;10.696;2023-02-27T05:36:15;5.00;;;1.90;;
30571;SDS011;17348;50.948;10.696;2023-02-27T05:39:24;6.10;;;1.52;;
30571;SDS011;17348;50.948;10.696;2023-02-27T05:42:30;5.07;;;1.87;;
30571;SDS011;17348;50.948;10.696;2023-02-27T05:45:36;8.33;;;2.50;;
30571;SDS011;17348;50.948;10.696;2023-02-27T05:48:41;3.00;;;1.90;;
30571;SDS011;17348;50.948;10.696;2023-02-27T05:51:48;9.37;;;2.43;;
30571;SDS011;17348;50.948;10.696;2023-02-27T05:54:55;5.83;;;2.47;;
30571;SDS011;17348;50.948;10.696;2023-02-27T05:58:02;7.30;;;2.37;;
30571;SDS011;17348;50.948;10.696;2023-02-27T06:01:10;3.10;;;1.77;;
30571;SDS011;17348;50.948;10.696;2023-02-27T06:04:13;5.57;;;2.20;;
30571;SDS011;17348;50.948;10.696;2023-02-27T06:07:16;5.67;;;2.23;;
30571;SDS011;17348;50.948;10.696;2023-02-27T06:10:20;3.70;;;1.60;;
30571;SDS011;17348;50.948;10.696;2023-02-27T06:13:23;5.23;;;1.93;;
30571;SDS011;17348;50.948;10.696;2023-02-27T06:16:26;4.00;;;2.10;;
30571;SDS011;17348;50.948;10.696;2023-02-27T06:19:28;4.13;;;1.87;;
30571;SDS011;17348;50.948;10.696;2023-02-27T06:22:32;8.53;;;2.53;;
30571;SDS011;17348;50.948;10.696;2023-02-27T06:25:35;8.00;;;2.23;;
30571;SDS011;17348;50.948;10.696;2023-02-27T06:28:38;5.87;;;2.67;;
30571;SDS011;17348;50.948;10.696;2023-02-27T06:31:40;8.83;;;3.07;;
30571;SDS011;17348;50.948;10.696;2023-02-27T06:34:43;8.67;;;3.40;;
30571;SDS011;17348;50.948;10.696;2023-02-27T06:37:50;13.77;;;3.40;;
30571;SDS011;17348;50.948;10.696;2023-02-27T06:40:53;11.23;;;3.83;;
30571;SDS011;17348;50.948;10.696;2023-02-27T06:43:55;7.27;;;3.47;;
30571;SDS011;17348;50.948;10.696;2023-02-27T06:46:57;9.37;;;3.73;;
30571;SDS011;17348;50.948;10.696;2023-02-27T06:50:00;8.07;;;3.20;;
30571;SDS011;17348;50.948;10.696;2023-02-27T06:53:04;8.63;;;3.13;;
30571;SDS011;17348;50.948;10.696;2023-02-27T06:56:07;8.30;;;2.90;;
30571;SDS011;17348;50.948;10.696;2023-02-27T06:59:09;7.63;;;2.90;;
30571;SDS011;17348;50.948;10.696;2023-02-27T07:02:12;9.43;;;2.97;;
30571;SDS011;17348;50.948;10.696;2023-02-27T07:05:16;5.10;;;2.30;;
30571;SDS011;17348;50.948;10.696;2023-02-27T07:08:20;9.27;;;2.90;;
30571;SDS011;17348;50.948;10.696;2023-02-27T07:11:22;9.37;;;2.80;;
30571;SDS011;17348;50.948;10.696;2023-02-27T07:14:25;8.57;;;3.37;;
30571;SDS011;17348;50.948;10.696;2023-02-27T07:17:27;7.37;;;3.10;;
30571;SDS011;17348;50.948;10.696;2023-02-27T07:20:31;7.27;;;2.67;;
30571;SDS011;17348;50.948;10.696;2023-02-27T07:23:35;7.93;;;2.67;;
30571;SDS011;17348;50.948;10.696;2023-02-27T07:26:37;5.73;;;2.80;;
30571;SDS011;17348;50.948;10.696;2023-02-27T07:29:40;4.73;;;2.50;;
30571;SDS011;17348;50.948;10.696;2023-02-27T07:32:42;4.27;;;2.40;;
30571;SDS011;17348;50.948;10.696;2023-02-27T07:35:45;5.90;;;2.60;;
30571;SDS011;17348;50.948;10.696;2023-02-27T07:38:49;7.67;;;2.97;;
30571;SDS011;17348;50.948;10.696;2023-02-27T07:41:52;4.57;;;1.97;;
30571;SDS011;17348;50.948;10.696;2023-02-27T07:44:54;7.33;;;1.77;;
30571;SDS011;17348;50.948;10.696;2023-02-27T07:47:57;5.87;;;1.93;;
30571;SDS011;17348;50.948;10.696;2023-02-27T07:50:59;3.27;;;1.70;;
30571;SDS011;17348;50.948;10.696;2023-02-27T07:54:03;8.50;;;2.03;;
30571;SDS011;17348;50.948;10.696;2023-02-27T07:57:06;7.63;;;2.50;;
30571;SDS011;17348;50.948;10.696;2023-02-27T08:00:09;6.70;;;2.10;;
30571;SDS011;17348;50.948;10.696;2023-02-27T08:03:12;2.97;;;1.90;;
30571;SDS011;17348;50.948;10.696;2023-02-27T08:06:14;6.93;;;2.43;;
30571;SDS011;17348;50.948;10.696;2023-02-27T08:09:18;6.93;;;2.67;;
30571;SDS011;17348;50.948;10.696;2023-02-27T08:12:20;12.87;;;2.47;;
30571;SDS011;17348;50.948;10.696;2023-02-27T08:15:22;3.40;;;1.93;;
30571;SDS011;17348;50.948;10.696;2023-02-27T08:18:25;4.60;;;1.50;;
30571;SDS011;17348;50.948;10.696;2023-02-27T08:21:28;5.30;;;2.33;;
30571;SDS011;17348;50.948;10.696;2023-02-27T08:24:32;3.43;;;1.53;;
30571;SDS011;17348;50.948;10.696;2023-02-27T08:27:34;5.40;;;1.63;;
30571;SDS011;17348;50.948;10.696;2023-02-27T08:30:37;8.27;;;2.17;;
30571;SDS011;17348;50.948;10.696;2023-02-27T08:33:39;3.00;;;1.53;;
30571;SDS011;17348;50.948;10.696;2023-02-27T08:36:42;5.57;;;1.63;;
30571;SDS011;17348;50.948;10.696;2023-02-27T08:39:45;3.57;;;1.83;;
30571;SDS011;17348;50.948;10.696;2023-02-27T08:42:48;2.37;;;1.43;;
30571;SDS011;17348;50.948;10.696;2023-02-27T08:45:52;11.53;;;1.50;;
30571;SDS011;17348;50.948;10.696;2023-02-27T08:48:54;2.30;;;1.30;;
30571;SDS011;17348;50.948;10.696;2023-02-27T08:51:56;3.20;;;1.60;;
30571;SDS011;17348;50.948;10.696;2023-02-27T08:55:00;2.13;;;1.10;;
30571;SDS011;17348;50.948;10.696;2023-02-27T08:58:03;3.53;;;1.30;;
30571;SDS011;17348;50.948;10.696;2023-02-27T09:01:05;4.40;;;2.00;;
30571;SDS011;17348;50.948;10.696;2023-02-27T09:04:07;6.87;;;2.13;;
30571;SDS011;17348;50.948;10.696;2023-02-27T09:07:10;2.50;;;1.47;;
30571;SDS011;17348;50.948;10.696;2023-02-27T09:10:14;5.87;;;1.53;;
30571;SDS011;17348;50.948;10.696;2023-02-27T09:13:17;3.30;;;1.67;;
30571;SDS011;17348;50.948;10.696;2023-02-27T09:16:20;2.27;;;1.30;;
30571;SDS011;17348;50.948;10.696;2023-02-27T09:19:23;2.60;;;1.43;;
30571;SDS011;17348;50.948;10.696;2023-02-27T09:22:26;5.13;;;1.93;;
30571;SDS011;17348;50.948;10.696;2023-02-27T09:25:30;4.57;;;1.33;;
30571;SDS011;17348;50.948;10.696;2023-02-27T09:28:32;2.70;;;1.20;;
30571;SDS011;17348;50.948;10.696;2023-02-27T09:31:34;2.27;;;1.70;;
30571;SDS011;17348;50.948;10.696;2023-02-27T09:34:37;7.03;;;1.43;;
30571;SDS011;17348;50.948;10.696;2023-02-27T09:37:39;3.07;;;1.00;;
30571;SDS011;17348;50.948;10.696;2023-02-27T09:40:43;1.13;;;0.70;;
30571;SDS011;17348;50.948;10.696;2023-02-27T09:43:48;4.50;;;1.30;;
30571;SDS011;17348;50.948;10.696;2023-02-27T09:46:52;1.40;;;1.10;;
30571;SDS011;17348;50.948;10.696;2023-02-27T09:49:57;2.97;;;1.10;;
30571;SDS011;17348;50.948;10.696;2023-02-27T09:53:01;3.70;;;1.00;;
30571;SDS011;17348;50.948;10.696;2023-02-27T09:56:07;2.20;;;0.83;;
30571;SDS011;17348;50.948;10.696;2023-02-27T09:59:17;3.90;;;1.23;;
30571;SDS011;17348;50.948;10.696;2023-02-27T10:02:32;1.70;;;1.00;;
30571;SDS011;17348;50.948;10.696;2023-02-27T10:05:44;7.60;;;1.10;;
30571;SDS011;17348;50.948;10.696;2023-02-27T10:09:01;2.17;;;1.00;;
30571;SDS011;17348;50.948;10.696;2023-02-27T10:12:18;1.43;;;0.83;;
30571;SDS011;17348;50.948;10.696;2023-02-27T10:15:44;5.23;;;1.87;;
30571;SDS011;17348;50.948;10.696;2023-02-27T10:18:51;2.47;;;1.03;;
30571;SDS011;17348;50.948;10.696;2023-02-27T10:21:58;3.20;;;1.40;;
30571;SDS011;17348;50.948;10.696;2023-02-27T10:25:05;5.33;;;1.30;;
30571;SDS011;17348;50.948;10.696;2023-02-27T10:28:14;3.27;;;1.10;;
30571;SDS011;17348;50.948;10.696;2023-02-27T10:31:19;2.87;;;1.07;;
30571;SDS011;17348;50.948;10.696;2023-02-27T10:34:24;1.90;;;0.73;;
30571;SDS011;17348;50.948;10.696;2023-02-27T10:37:29;3.50;;;0.60;;
30571;SDS011;17348;50.948;10.696;2023-02-27T10:40:32;4.10;;;1.03;;
30571;SDS011;17348;50.948;10.696;2023-02-27T10:43:38;5.83;;;1.03;;
30571;SDS011;17348;50.948;10.696;2023-02-27T10:46:41;3.70;;;1.40;;
30571;SDS011;17348;50.948;10.696;2023-02-27T10:49:43;2.17;;;1.10;;
30571;SDS011;17348;50.948;10.696;2023-02-27T10:52:49;1.67;;;0.70;;
30571;SDS011;17348;50.948;10.696;2023-02-27T10:55:57;5.73;;;1.30;;
30571;SDS011;17348;50.948;10.696;2023-02-27T10:59:04;4.93;;;1.20;;
30571;SDS011;17348;50.948;10.696;2023-02-27T11:02:19;1.20;;;0.80;;
30571;SDS011;17348;50.948;10.696;2023-02-27T11:05:24;2.50;;;1.00;;
30571;SDS011;17348;50.948;10.696;2023-02-27T11:08:28;2.70;;;1.13;;
30571;SDS011;17348;50.948;10.696;2023-02-27T11:11:32;4.53;;;1.07;;
30571;SDS011;17348;50.948;10.696;2023-02-27T11:14:47;2.37;;;1.30;;
30571;SDS011;17348;50.948;10.696;2023-02-27T11:17:51;6.77;;;1.77;;
30571;SDS011;17348;50.948;10.696;2023-02-27T11:20:59;2.97;;;1.20;;
30571;SDS011;17348;50.948;10.696;2023-02-27T11:24:17;3.50;;;1.17;;
30571;SDS011;17348;50.948;10.696;2023-02-27T11:27:21;4.67;;;1.47;;
30571;SDS011;17348;50.948;10.696;2023-02-27T11:30:29;2.90;;;0.83;;
30571;SDS011;17348;50.948;10.696;2023-02-27T11:33:32;2.23;;;1.20;;
30571;SDS011;17348;50.948;10.696;2023-02-27T11:36:39;6.30;;;1.30;;
30571;SDS011;17348;50.948;10.696;2023-02-27T11:39:46;2.13;;;1.20;;
30571;SDS011;17348;50.948;10.696;2023-02-27T11:42:51;1.67;;;1.10;;
30571;SDS011;17348;50.948;10.696;2023-02-27T11:45:58;6.13;;;1.50;;
30571;SDS011;17348;50.948;10.696;2023-02-27T11:49:05;2.10;;;0.77;;
30571;SDS011;17348;50.948;10.696;2023-02-27T11:52:22;10.03;;;1.47;;
30571;SDS011;17348;50.948;10.696;2023-02-27T11:55:31;4.37;;;1.40;;
30571;SDS011;17348;50.948;10.696;2023-02-27T11:58:35;1.93;;;1.13;;
30571;SDS011;17348;50.948;10.696;2023-02-27T12:01:44;2.90;;;0.90;;
30571;SDS011;17348;50.948;10.696;2023-02-27T12:04:50;1.20;;;0.83;;
30571;SDS011;17348;50.948;10.696;2023-02-27T12:07:56;1.13;;;0.73;;
30571;SDS011;17348;50.948;10.696;2023-02-27T12:11:05;2.40;;;0.90;;
30571;SDS011;17348;50.948;10.696;2023-02-27T12:14:14;0.90;;;0.50;;
30571;SDS011;17348;50.948;10.696;2023-02-27T12:17:24;4.50;;;1.60;;
30571;SDS011;17348;50.948;10.696;2023-02-27T12:20:32;0.80;;;0.70;;
30571;SDS011;17348;50.948;10.696;2023-02-27T12:23:40;3.97;;;1.00;;
30571;SDS011;17348;50.948;10.696;2023-02-27T12:26:48;4.23;;;0.97;;
30571;SDS011;17348;50.948;10.696;2023-02-27T12:29:57;5.77;;;1.07;;
30571;SDS011;17348;50.948;10.696;2023-02-27T12:33:08;1.53;;;0.60;;
30571;SDS011;17348;50.948;10.696;2023-02-27T12:36:16;1.90;;;0.77;;
30571;SDS011;17348;50.948;10.696;2023-02-27T12:39:19;1.67;;;1.00;;
30571;SDS011;17348;50.948;10.696;2023-02-27T12:42:32;3.33;;;0.90;;
30571;SDS011;17348;50.948;10.696;2023-02-27T12:45:58;4.30;;;1.30;;
30571;SDS011;17348;50.948;10.696;2023-02-27T12:49:23;2.83;;;1.83;;
30571;SDS011;17348;50.948;10.696;2023-02-27T12:52:36;6.77;;;2.03;;
30571;SDS011;17348;50.948;10.696;2023-02-27T12:55:47;5.00;;;1.90;;
30571;SDS011;17348;50.948;10.696;2023-02-27T12:58:55;3.27;;;1.77;;
30571;SDS011;17348;50.948;10.696;2023-02-27T13:02:14;4.90;;;1.53;;
30571;SDS011;17348;50.948;10.696;2023-02-27T13:05:35;3.47;;;1.53;;
30571;SDS011;17348;50.948;10.696;2023-02-27T13:08:53;3.43;;;1.37;;
30571;SDS011;17348;50.948;10.696;2023-02-27T13:12:11;6.50;;;1.33;;
30571;SDS011;17348;50.948;10.696;2023-02-27T13:15:22;3.83;;;1.40;;
30571;SDS011;17348;50.948;10.696;2023-02-27T13:18:35;2.70;;;1.47;;
30571;SDS011;17348;50.948;10.696;2023-02-27T13:21:44;8.70;;;1.67;;
30571;SDS011;17348;50.948;10.696;2023-02-27T13:24:49;7.10;;;1.90;;
30571;SDS011;17348;50.948;10.696;2023-02-27T13:27:52;4.70;;;1.43;;
30571;SDS011;17348;50.948;10.696;2023-02-27T13:30:59;1.83;;;1.07;;
30571;SDS011;17348;50.948;10.696;2023-02-27T13:34:10;4.47;;;1.30;;
30571;SDS011;17348;50.948;10.696;2023-02-27T13:37:20;2.37;;;1.00;;
30571;SDS011;17348;50.948;10.696;2023-02-27T13:40:27;6.87;;;1.50;;
30571;SDS011;17348;50.948;10.696;2023-02-27T13:43:40;1.77;;;0.97;;
30571;SDS011;17348;50.948;10.696;2023-02-27T13:46:42;5.27;;;1.33;;
30571;SDS011;17348;50.948;10.696;2023-02-27T13:49:44;3.70;;;1.63;;
30571;SDS011;17348;50.948;10.696;2023-02-27T13:52:48;5.07;;;1.50;;
30571;SDS011;17348;50.948;10.696;2023-02-27T13:55:51;14.77;;;2.50;;
30571;SDS011;17348;50.948;10.696;2023-02-27T13:59:00;5.27;;;1.50;;
30571;SDS011;17348;50.948;10.696;2023-02-27T14:02:24;1.63;;;1.17;;
30571;SDS011;17348;50.948;10.696;2023-02-27T14:05:53;3.57;;;1.60;;
30571;SDS011;17348;50.948;10.696;2023-02-27T14:09:00;5.50;;;1.70;;
30571;SDS011;17348;50.948;10.696;2023-02-27T14:12:03;6.17;;;1.40;;
30571;SDS011;17348;50.948;10.696;2023-02-27T14:15:09;3.63;;;1.83;;
30571;SDS011;17348;50.948;10.696;2023-02-27T14:18:51;2.13;;;1.40;;
30571;SDS011;17348;50.948;10.696;2023-02-27T14:21:57;3.73;;;1.30;;
30571;SDS011;17348;50.948;10.696;2023-02-27T14:25:09;4.20;;;1.33;;
30571;SDS011;17348;50.948;10.696;2023-02-27T14:28:22;2.43;;;1.23;;
30571;SDS011;17348;50.948;10.696;2023-02-27T14:31:30;4.50;;;1.70;;
30571;SDS011;17348;50.948;10.696;2023-02-27T14:34:34;10.00;;;1.23;;
30571;SDS011;17348;50.948;10.696;2023-02-27T14:37:38;4.40;;;1.60;;
30571;SDS011;17348;50.948;10.696;2023-02-27T14:40:47;4.93;;;1.83;;
30571;SDS011;17348;50.948;10.696;2023-02-27T14:43:57;9.47;;;1.80;;
30571;SDS011;17348;50.948;10.696;2023-02-27T14:47:00;11.40;;;2.00;;
30571;SDS011;17348;50.948;10.696;2023-02-27T14:50:20;2.73;;;1.50;;
30571;SDS011;17348;50.948;10.696;2023-02-27T14:53:26;7.77;;;3.23;;
30571;SDS011;17348;50.948;10.696;2023-02-27T14:56:30;3.03;;;1.80;;
30571;SDS011;17348;50.948;10.696;2023-02-27T14:59:40;3.17;;;1.57;;
30571;SDS011;17348;50.948;10.696;2023-02-27T15:05:46;2.20;;;1.43;;
30571;SDS011;17348;50.948;10.696;2023-02-27T15:08:50;3.47;;;1.67;;
30571;SDS011;17348;50.948;10.696;2023-02-27T15:11:57;13.20;;;1.73;;
30571;SDS011;17348;50.948;10.696;2023-02-27T15:15:01;4.00;;;1.90;;
30571;SDS011;17348;50.948;10.696;2023-02-27T15:18:10;6.80;;;1.70;;
30571;SDS011;17348;50.948;10.696;2023-02-27T15:21:14;3.23;;;1.57;;
30571;SDS011;17348;50.948;10.696;2023-02-27T15:24:19;4.27;;;1.70;;
30571;SDS011;17348;50.948;10.696;2023-02-27T15:27:31;2.83;;;1.70;;
30571;SDS011;17348;50.948;10.696;2023-02-27T15:30:36;4.13;;;1.70;;
30571;SDS011;17348;50.948;10.696;2023-02-27T15:33:39;2.93;;;1.40;;
30571;SDS011;17348;50.948;10.696;2023-02-27T15:36:44;3.50;;;1.87;;
30571;SDS011;17348;50.948;10.696;2023-02-27T15:39:49;4.00;;;1.60;;
30571;SDS011;17348;50.948;10.696;2023-02-27T15:42:54;4.33;;;1.57;;
30571;SDS011;17348;50.948;10.696;2023-02-27T15:45:58;3.53;;;1.67;;
30571;SDS011;17348;50.948;10.696;2023-02-27T15:49:01;6.13;;;1.93;;
30571;SDS011;17348;50.948;10.696;2023-02-27T15:52:04;3.90;;;1.93;;
30571;SDS011;17348;50.948;10.696;2023-02-27T15:55:14;4.47;;;2.13;;
30571;SDS011;17348;50.948;10.696;2023-02-27T15:58:25;8.17;;;2.30;;
30571;SDS011;17348;50.948;10.696;2023-02-27T16:01:30;5.63;;;2.27;;
30571;SDS011;17348;50.948;10.696;2023-02-27T16:04:34;4.40;;;1.67;;
30571;SDS011;17348;50.948;10.696;2023-02-27T16:07:37;3.90;;;2.13;;
30571;SDS011;17348;50.948;10.696;2023-02-27T16:10:43;3.03;;;2.00;;
30571;SDS011;17348;50.948;10.696;2023-02-27T16:13:48;3.80;;;2.10;;
30571;SDS011;17348;50.948;10.696;2023-02-27T16:16:52;6.63;;;2.33;;
30571;SDS011;17348;50.948;10.696;2023-02-27T16:19:56;2.90;;;1.80;;
30571;SDS011;17348;50.948;10.696;2023-02-27T16:23:01;8.23;;;2.53;;
30571;SDS011;17348;50.948;10.696;2023-02-27T16:26:10;3.97;;;2.50;;
30571;SDS011;17348;50.948;10.696;2023-02-27T16:29:30;4.63;;;2.43;;
30571;SDS011;17348;50.948;10.696;2023-02-27T16:32:35;4.63;;;2.23;;
30571;SDS011;17348;50.948;10.696;2023-02-27T16:35:40;8.83;;;2.50;;
30571;SDS011;17348;50.948;10.696;2023-02-27T16:38:43;5.43;;;3.00;;
30571;SDS011;17348;50.948;10.696;2023-02-27T16:41:45;7.80;;;3.77;;
30571;SDS011;17348;50.948;10.696;2023-02-27T16:44:50;11.40;;;3.90;;
30571;SDS011;17348;50.948;10.696;2023-02-27T16:47:53;9.40;;;3.27;;
30571;SDS011;17348;50.948;10.696;2023-02-27T16:50:57;8.10;;;3.60;;
30571;SDS011;17348;50.948;10.696;2023-02-27T16:53:59;9.90;;;4.80;;
30571;SDS011;17348;50.948;10.696;2023-02-27T16:57:02;10.53;;;4.53;;
30571;SDS011;17348;50.948;10.696;2023-02-27T17:00:09;9.63;;;4.23;;
30571;SDS011;17348;50.948;10.696;2023-02-27T17:03:12;9.30;;;4.47;;
30571;SDS011;17348;50.948;10.696;2023-02-27T17:06:17;9.67;;;4.03;;
30571;SDS011;17348;50.948;10.696;2023-02-27T17:09:19;7.37;;;4.37;;
30571;SDS011;17348;50.948;10.696;2023-02-27T17:12:22;10.73;;;4.23;;
30571;SDS011;17348;50.948;10.696;2023-02-27T17:15:26;7.80;;;3.80;;
30571;SDS011;17348;50.948;10.696;2023-02-27T17:18:29;8.10;;;4.07;;
30571;SDS011;17348;50.948;10.696;2023-02-27T17:21:32;6.40;;;3.73;;
30571;SDS011;17348;50.948;10.696;2023-02-27T17:24:35;9.37;;;4.60;;
30571;SDS011;17348;50.948;10.696;2023-02-27T17:27:37;8.13;;;4.47;;
30571;SDS011;17348;50.948;10.696;2023-02-27T17:30:43;9.33;;;4.30;;
30571;SDS011;17348;50.948;10.696;2023-02-27T17:33:46;6.07;;;3.30;;
30571;SDS011;17348;50.948;10.696;2023-02-27T17:36:49;5.73;;;3.67;;
30571;SDS011;17348;50.948;10.696;2023-02-27T17:39:52;8.37;;;3.40;;
30571;SDS011;17348;50.948;10.696;2023-02-27T17:42:55;14.63;;;3.57;;
30571;SDS011;17348;50.948;10.696;2023-02-27T17:45:58;8.87;;;3.10;;
30571;SDS011;17348;50.948;10.696;2023-02-27T17:49:02;10.47;;;3.60;;
30571;SDS011;17348;50.948;10.696;2023-02-27T17:52:05;16.13;;;4.20;;
30571;SDS011;17348;50.948;10.696;2023-02-27T17:55:10;9.97;;;4.80;;
30571;SDS011;17348;50.948;10.696;2023-02-27T17:58:15;15.30;;;4.73;;
30571;SDS011;17348;50.948;10.696;2023-02-27T18:01:20;10.70;;;5.30;;
30571;SDS011;17348;50.948;10.696;2023-02-27T18:04:25;11.87;;;5.30;;
30571;SDS011;17348;50.948;10.696;2023-02-27T18:07:27;14.63;;;5.50;;
30571;SDS011;17348;50.948;10.696;2023-02-27T18:10:30;11.00;;;4.87;;
30571;SDS011;17348;50.948;10.696;2023-02-27T18:13:32;10.87;;;5.30;;
30571;SDS011;17348;50.948;10.696;2023-02-27T18:16:36;9.17;;;5.10;;
30571;SDS011;17348;50.948;10.696;2023-02-27T18:19:38;10.50;;;5.40;;
30571;SDS011;17348;50.948;10.696;2023-02-27T18:22:41;10.90;;;5.73;;
30571;SDS011;17348;50.948;10.696;2023-02-27T18:25:43;12.87;;;5.87;;
30571;SDS011;17348;50.948;10.696;2023-02-27T18:28:54;10.37;;;5.63;;
30571;SDS011;17348;50.948;10.696;2023-02-27T18:32:00;11.63;;;6.27;;
30571;SDS011;17348;50.948;10.696;2023-02-27T18:35:03;9.60;;;5.47;;
30571;SDS011;17348;50.948;10.696;2023-02-27T18:38:06;15.90;;;6.23;;